createdAt,value
2023-05-16T00:00:39.368Z,14.88
2023-05-16T00:03:06.551Z,14.89
2023-05-16T00:05:33.591Z,14.94
2023-05-16T00:08:00.491Z,14.99
2023-05-16T00:10:27.835Z,14.99
2023-05-16T00:12:56.505Z,15.04
2023-05-16T00:15:25.172Z,15.03
2023-05-16T00:17:52.190Z,15.02
2023-05-16T00:20:23.742Z,15.05
2023-05-16T00:22:51.205Z,15.05
2023-05-16T00:25:18.310Z,15.09
2023-05-16T00:27:45.223Z,15.12
2023-05-16T00:30:12.314Z,15.17
2023-05-16T00:32:39.451Z,15.15
2023-05-16T00:35:07.215Z,15.18
2023-05-16T00:37:34.037Z,15.25
2023-05-16T00:40:00.910Z,15.36
2023-05-16T00:42:27.814Z,15.43
2023-05-16T00:44:54.660Z,15.33
2023-05-16T00:47:21.776Z,15.36
2023-05-16T00:49:48.641Z,15.45
2023-05-16T00:52:16.397Z,15.51
2023-05-16T00:54:43.309Z,15.58
2023-05-16T00:57:10.268Z,15.59
2023-05-16T00:59:37.049Z,15.61
2023-05-16T01:02:04.089Z,15.61
2023-05-16T01:04:30.941Z,15.61
2023-05-16T01:06:57.964Z,15.56
2023-05-16T01:09:24.871Z,15.55
2023-05-16T01:12:03.998Z,15.58
2023-05-16T01:14:51.197Z,15.58
2023-05-16T01:17:19.244Z,15.59
2023-05-16T01:20:06.412Z,15.65
2023-05-16T01:22:42.276Z,15.66
2023-05-16T01:25:18.010Z,15.72
2023-05-16T01:27:44.773Z,15.72
2023-05-16T01:30:16.155Z,15.80
2023-05-16T01:32:43.084Z,15.83
2023-05-16T01:35:11.477Z,15.89
2023-05-16T01:37:42.741Z,15.85
2023-05-16T01:40:11.642Z,15.88
2023-05-16T01:42:39.787Z,15.97
2023-05-16T01:45:08.896Z,15.99
2023-05-16T01:47:37.318Z,16.02
2023-05-16T01:50:10.993Z,16.10
2023-05-16T01:52:37.757Z,16.19
2023-05-16T01:55:04.956Z,16.22
2023-05-16T01:57:31.965Z,16.24
2023-05-16T01:59:59.386Z,16.30
2023-05-16T02:02:26.308Z,16.33
2023-05-16T02:04:53.157Z,16.37
2023-05-16T02:07:19.919Z,16.41
2023-05-16T02:09:46.743Z,16.37
2023-05-16T02:12:13.521Z,16.32
2023-05-16T02:14:40.436Z,16.30
2023-05-16T02:17:07.425Z,16.31
2023-05-16T02:19:34.285Z,16.34
2023-05-16T02:22:01.035Z,16.35
2023-05-16T02:24:27.900Z,16.40
2023-05-16T02:26:55.813Z,16.41
2023-05-16T02:29:22.637Z,16.44
2023-05-16T02:31:49.555Z,16.47
2023-05-16T02:34:16.905Z,16.51
2023-05-16T02:36:43.722Z,16.63
2023-05-16T02:39:11.391Z,16.72
2023-05-16T02:41:38.219Z,16.78
2023-05-16T02:44:05.117Z,16.81
2023-05-16T02:46:33.663Z,16.82
2023-05-16T02:49:00.746Z,16.78
2023-05-16T02:51:27.919Z,16.77
2023-05-16T02:53:57.265Z,16.76
2023-05-16T02:56:24.229Z,16.83
2023-05-16T02:58:51.393Z,16.85
2023-05-16T03:01:18.718Z,16.91
2023-05-16T03:03:45.896Z,16.91
2023-05-16T03:06:12.884Z,16.92
2023-05-16T03:08:39.758Z,16.90
2023-05-16T03:11:06.514Z,16.95
2023-05-16T03:13:33.368Z,16.98
2023-05-16T03:16:00.635Z,17.03
2023-05-16T03:18:27.431Z,17.09
2023-05-16T03:20:54.308Z,17.14
2023-05-16T03:23:23.942Z,17.11
2023-05-16T03:25:51.041Z,17.16
2023-05-16T03:28:20.962Z,17.23
2023-05-16T03:30:47.748Z,17.22
2023-05-16T03:33:14.549Z,17.28
2023-05-16T03:35:42.545Z,17.31
2023-05-16T03:38:09.666Z,17.36
2023-05-16T03:40:36.493Z,17.40
2023-05-16T03:43:04.257Z,17.42
2023-05-16T03:45:31.624Z,17.56
2023-05-16T03:47:58.572Z,17.62
2023-05-16T03:50:25.683Z,17.64
2023-05-16T03:52:54.081Z,17.68
2023-05-16T03:55:21.107Z,17.71
2023-05-16T03:57:50.251Z,17.73
2023-05-16T04:00:17.346Z,17.74
2023-05-16T04:02:44.324Z,17.79
2023-05-16T04:05:11.688Z,17.77
2023-05-16T04:07:38.585Z,17.82
2023-05-16T04:10:05.488Z,17.88
2023-05-16T04:12:32.497Z,17.95
2023-05-16T04:14:59.334Z,18.04
2023-05-16T04:17:26.338Z,18.05
2023-05-16T04:19:53.154Z,18.06
2023-05-16T04:22:21.691Z,18.10
2023-05-16T04:24:48.660Z,18.14
2023-05-16T04:27:15.414Z,18.18
2023-05-16T04:29:42.404Z,18.24
2023-05-16T04:32:09.780Z,18.24
2023-05-16T04:34:39.623Z,18.27
2023-05-16T04:37:08.674Z,18.30
2023-05-16T04:39:36.342Z,18.29
2023-05-16T04:42:04.514Z,18.25
2023-05-16T04:44:31.926Z,18.33
2023-05-16T04:46:58.926Z,18.37
2023-05-16T04:49:26.317Z,18.46
2023-05-16T04:51:53.578Z,18.47
2023-05-16T04:54:20.394Z,18.48
2023-05-16T04:56:47.148Z,18.55
2023-05-16T04:59:14.008Z,18.60
2023-05-16T05:01:40.949Z,18.68
2023-05-16T05:04:07.745Z,18.63
2023-05-16T05:06:34.602Z,18.72
2023-05-16T05:09:01.581Z,18.75
2023-05-16T05:11:28.708Z,18.79
2023-05-16T05:13:55.515Z,18.81
2023-05-16T05:16:22.630Z,18.88
2023-05-16T05:18:49.776Z,18.95
2023-05-16T05:21:16.904Z,18.99
2023-05-16T05:23:43.669Z,19.01
2023-05-16T05:26:10.700Z,18.97
2023-05-16T05:28:38.157Z,18.93
2023-05-16T05:31:08.372Z,18.86
2023-05-16T05:33:35.358Z,18.77
2023-05-16T05:36:04.242Z,18.73
2023-05-16T05:38:31.561Z,18.70
2023-05-16T05:40:58.529Z,18.70
2023-05-16T05:43:25.688Z,18.71
2023-05-16T05:45:52.620Z,18.74
2023-05-16T05:48:19.689Z,18.78
2023-05-16T05:50:46.510Z,18.78
2023-05-16T05:53:16.620Z,18.76
2023-05-16T05:55:43.514Z,18.75
2023-05-16T05:58:13.168Z,18.75
2023-05-16T06:00:40.414Z,18.82
2023-05-16T06:03:09.021Z,18.87
2023-05-16T06:05:36.179Z,18.92
2023-05-16T06:08:08.203Z,18.94
2023-05-16T06:10:35.256Z,19.02
2023-05-16T06:13:02.685Z,19.06
2023-05-16T06:15:29.917Z,19.10
2023-05-16T06:17:57.154Z,19.12
2023-05-16T06:20:24.307Z,19.15
2023-05-16T06:22:57.575Z,19.19
2023-05-16T06:25:24.462Z,19.21
2023-05-16T06:27:51.406Z,19.22
2023-05-16T06:30:18.301Z,19.22
2023-05-16T06:32:48.670Z,19.28
2023-05-16T06:35:15.828Z,19.29
2023-05-16T06:37:43.202Z,19.29
2023-05-16T06:40:10.716Z,19.33
2023-05-16T06:42:37.773Z,19.32
2023-05-16T06:45:05.525Z,19.35
2023-05-16T06:47:32.561Z,19.38
2023-05-16T06:49:59.509Z,19.41
2023-05-16T06:52:26.533Z,19.48
2023-05-16T06:54:53.370Z,19.52
2023-05-16T06:57:20.741Z,19.55
2023-05-16T06:59:47.742Z,19.56
2023-05-16T07:02:14.905Z,19.58
2023-05-16T07:04:43.254Z,19.64
2023-05-16T07:07:10.274Z,19.77
2023-05-16T07:09:37.672Z,19.89
2023-05-16T07:12:05.775Z,19.93
2023-05-16T07:14:35.785Z,19.98
2023-05-16T07:17:05.757Z,20.02
2023-05-16T07:19:32.782Z,20.05
2023-05-16T07:22:00.685Z,20.14
2023-05-16T07:24:30.025Z,20.26
2023-05-16T07:26:57.143Z,20.36
2023-05-16T07:29:24.000Z,20.51
2023-05-16T07:31:51.123Z,20.59
2023-05-16T07:34:21.341Z,20.65
2023-05-16T07:36:51.503Z,20.72
2023-05-16T07:39:19.518Z,20.81
2023-05-16T07:41:47.150Z,20.87
2023-05-16T07:44:14.097Z,20.86
2023-05-16T07:46:41.199Z,20.88
2023-05-16T07:49:08.250Z,20.94
2023-05-16T07:51:35.156Z,21.01
2023-05-16T07:54:02.190Z,21.07
2023-05-16T07:56:29.111Z,21.02
2023-05-16T07:58:56.260Z,21.05
2023-05-16T08:01:23.212Z,21.09
2023-05-16T08:03:53.743Z,21.12
2023-05-16T08:06:21.038Z,21.15
2023-05-16T08:08:47.918Z,21.26
2023-05-16T08:11:16.564Z,21.41
2023-05-16T08:13:43.574Z,21.59
2023-05-16T08:16:10.849Z,21.73
2023-05-16T08:18:38.021Z,21.86
2023-05-16T08:21:05.455Z,21.94
2023-05-16T08:23:32.440Z,22.04
2023-05-16T08:25:59.476Z,22.11
2023-05-16T08:28:26.446Z,22.18
2023-05-16T08:30:54.311Z,22.19
2023-05-16T08:33:23.753Z,22.15
2023-05-16T08:35:55.204Z,22.13
2023-05-16T08:38:22.179Z,22.08
2023-05-16T08:40:49.179Z,22.08
2023-05-16T08:43:16.206Z,22.02
2023-05-16T08:45:44.368Z,22.06
2023-05-16T08:48:14.831Z,22.12
2023-05-16T08:50:43.272Z,22.05
2023-05-16T08:53:10.195Z,21.97
2023-05-16T08:55:37.203Z,21.96
2023-05-16T08:58:10.510Z,21.95
2023-05-16T09:00:38.412Z,21.98
2023-05-16T09:03:06.798Z,21.93
2023-05-16T09:05:34.191Z,21.91
2023-05-16T09:08:01.122Z,21.90
2023-05-16T09:10:28.254Z,21.93
2023-05-16T09:12:56.454Z,22.00
2023-05-16T09:15:23.504Z,22.04
2023-05-16T09:17:50.658Z,22.06
2023-05-16T09:20:23.983Z,22.08
2023-05-16T09:22:55.357Z,22.11
2023-05-16T09:25:30.183Z,22.13
2023-05-16T09:28:08.728Z,22.12
2023-05-16T09:30:39.648Z,22.09
2023-05-16T09:33:07.240Z,22.08
2023-05-16T09:35:45.088Z,22.14
2023-05-16T09:38:17.086Z,22.16
2023-05-16T09:40:47.485Z,22.15
2023-05-16T09:43:15.340Z,22.15
2023-05-16T09:45:45.529Z,22.11
2023-05-16T09:48:15.673Z,22.06
2023-05-16T09:50:46.836Z,22.05
2023-05-16T09:53:14.213Z,22.11
2023-05-16T09:55:41.523Z,22.15
2023-05-16T09:58:08.551Z,22.17
2023-05-16T10:00:36.195Z,22.18
2023-05-16T10:03:05.764Z,22.19
2023-05-16T10:05:33.660Z,22.27
2023-05-16T10:08:03.783Z,22.34
2023-05-16T10:10:31.013Z,22.44
2023-05-16T10:12:58.762Z,22.53
2023-05-16T10:15:26.205Z,22.63
2023-05-16T10:17:53.593Z,22.64
2023-05-16T10:20:20.720Z,22.69
2023-05-16T10:22:47.628Z,22.74
2023-05-16T10:25:32.679Z,22.89
2023-05-16T10:28:00.111Z,22.96
2023-05-16T10:30:27.145Z,22.95
2023-05-16T10:32:56.921Z,22.96
2023-05-16T10:35:24.318Z,22.95
2023-05-16T10:37:51.432Z,22.99
2023-05-16T10:40:18.604Z,23.02
2023-05-16T10:42:56.132Z,23.09
2023-05-16T10:45:23.757Z,23.14
2023-05-16T10:47:54.659Z,23.10
2023-05-16T10:50:34.550Z,23.08
2023-05-16T10:53:20.951Z,23.04
2023-05-16T10:56:06.541Z,23.04
2023-05-16T10:58:38.298Z,23.01
2023-05-16T11:01:15.060Z,23.03
2023-05-16T11:03:57.417Z,23.05
2023-05-16T11:06:28.748Z,23.16
2023-05-16T11:08:58.874Z,23.18
2023-05-16T11:11:42.011Z,23.17
2023-05-16T11:14:09.185Z,23.16
2023-05-16T11:16:37.364Z,23.17
2023-05-16T11:19:04.919Z,23.19
2023-05-16T11:21:51.463Z,23.19
2023-05-16T11:24:31.342Z,23.22
2023-05-16T11:26:59.765Z,23.17
2023-05-16T11:29:34.406Z,23.13
2023-05-16T11:32:02.010Z,23.04
2023-05-16T11:34:41.552Z,22.98
2023-05-16T11:37:12.317Z,23.05
2023-05-16T11:39:39.378Z,23.28
2023-05-16T11:42:15.076Z,23.30
2023-05-16T11:44:42.152Z,23.28
2023-05-16T11:47:09.532Z,23.31
2023-05-16T11:49:42.193Z,23.28
2023-05-16T11:52:11.718Z,23.22
2023-05-16T11:54:39.675Z,23.25
2023-05-16T11:57:06.904Z,23.27
2023-05-16T11:59:37.378Z,23.32
2023-05-16T12:02:05.165Z,23.33
2023-05-16T12:04:36.838Z,23.28
2023-05-16T12:07:04.961Z,23.23
2023-05-16T12:09:31.984Z,23.29
2023-05-16T12:12:00.656Z,23.46
2023-05-16T12:14:31.586Z,23.53
2023-05-16T12:17:01.817Z,23.47
2023-05-16T12:19:31.715Z,23.29
2023-05-16T12:21:59.273Z,23.11
2023-05-16T12:24:35.602Z,23.19
2023-05-16T12:27:02.800Z,23.22
2023-05-16T12:29:29.869Z,23.25
2023-05-16T12:31:57.113Z,23.28
2023-05-16T12:34:24.557Z,23.30
2023-05-16T12:36:53.947Z,23.14
2023-05-16T12:39:21.314Z,22.70
2023-05-16T12:41:50.875Z,22.66
2023-05-16T12:44:19.933Z,22.57
2023-05-16T12:46:51.743Z,22.51
2023-05-16T12:49:23.026Z,22.47
2023-05-16T12:51:54.539Z,22.46
2023-05-16T12:54:26.883Z,22.38
2023-05-16T12:56:54.511Z,22.34
2023-05-16T12:59:21.625Z,22.36
2023-05-16T13:01:49.269Z,22.44
2023-05-16T13:04:19.651Z,22.51
2023-05-16T13:06:57.356Z,22.64
2023-05-16T13:09:25.105Z,22.71
2023-05-16T13:11:53.697Z,22.71
2023-05-16T13:14:20.842Z,22.70
2023-05-16T13:16:56.303Z,22.66
2023-05-16T13:19:31.915Z,22.63
2023-05-16T13:21:59.009Z,22.65
2023-05-16T13:24:28.790Z,22.63
2023-05-16T13:26:55.832Z,22.60
2023-05-16T13:29:28.866Z,22.60
2023-05-16T13:32:04.611Z,22.59
2023-05-16T13:34:35.351Z,22.61
2023-05-16T13:37:02.455Z,22.58
2023-05-16T13:39:29.735Z,22.55
2023-05-16T13:41:56.641Z,22.57
2023-05-16T13:44:23.663Z,22.57
2023-05-16T13:46:50.945Z,22.52
2023-05-16T13:49:21.196Z,22.51
2023-05-16T13:51:48.226Z,22.52
2023-05-16T13:54:15.681Z,22.54
2023-05-16T13:56:42.595Z,22.55
2023-05-16T13:59:15.394Z,22.50
2023-05-16T14:01:51.219Z,22.44
2023-05-16T14:04:23.061Z,22.41
2023-05-16T14:06:50.976Z,22.35
2023-05-16T14:09:19.043Z,22.32
2023-05-16T14:11:45.886Z,22.36
2023-05-16T14:14:12.895Z,22.37
2023-05-16T14:16:46.410Z,22.33
2023-05-16T14:19:19.129Z,22.23
2023-05-16T14:21:46.752Z,22.20
2023-05-16T14:24:13.617Z,22.18
2023-05-16T14:26:41.479Z,22.18
2023-05-16T14:29:08.566Z,22.27
2023-05-16T14:31:36.879Z,22.31
2023-05-16T14:34:06.958Z,22.30
2023-05-16T14:36:34.014Z,22.30
2023-05-16T14:39:01.101Z,22.29
2023-05-16T14:41:28.251Z,22.26
2023-05-16T14:43:58.230Z,22.23
2023-05-16T14:46:25.345Z,22.22
2023-05-16T14:48:52.722Z,22.18
2023-05-16T14:51:19.628Z,22.16
2023-05-16T14:53:47.378Z,22.10
2023-05-16T14:56:14.492Z,22.08
2023-05-16T14:58:41.568Z,22.01
2023-05-16T15:01:13.110Z,21.97
2023-05-16T15:06:11.927Z,22.07
2023-05-16T15:08:38.937Z,22.02
2023-05-16T15:11:06.095Z,21.96
2023-05-16T15:13:32.973Z,21.90
2023-05-16T15:16:00.116Z,21.84
2023-05-16T15:18:27.082Z,21.75
2023-05-16T15:20:53.964Z,21.75
2023-05-16T15:23:20.988Z,21.76
2023-05-16T15:25:47.950Z,21.77
2023-05-16T15:28:14.779Z,21.76
2023-05-16T15:30:41.655Z,21.63
2023-05-16T15:33:10.553Z,21.63
2023-05-16T15:35:37.639Z,21.61
2023-05-16T15:38:04.760Z,21.59
2023-05-16T15:40:31.706Z,21.59
2023-05-16T15:42:58.633Z,21.60
2023-05-16T15:45:25.691Z,21.57
2023-05-16T15:47:52.768Z,21.48
2023-05-16T15:50:19.823Z,21.44
2023-05-16T15:52:46.792Z,21.35
2023-05-16T15:55:14.113Z,21.32
2023-05-16T15:57:42.520Z,21.29
2023-05-16T16:00:09.772Z,21.28
2023-05-16T16:02:40.637Z,21.25
2023-05-16T16:05:07.927Z,21.28
2023-05-16T16:07:35.084Z,21.30
2023-05-16T16:10:02.184Z,21.27
2023-05-16T16:12:29.893Z,21.22
2023-05-16T16:14:56.963Z,21.14
2023-05-16T16:17:24.044Z,21.05
2023-05-16T16:19:58.044Z,21.00
2023-05-16T16:22:25.206Z,20.93
2023-05-16T16:24:52.302Z,20.88
2023-05-16T16:27:19.080Z,20.79
2023-05-16T16:29:46.239Z,20.73
2023-05-16T16:32:13.122Z,20.71
2023-05-16T16:34:39.945Z,20.66
2023-05-16T16:37:07.223Z,20.62
2023-05-16T16:39:34.098Z,20.57
2023-05-16T16:42:00.987Z,20.53
2023-05-16T16:44:28.189Z,20.45
2023-05-16T16:46:55.228Z,20.33
2023-05-16T16:49:22.104Z,20.23
2023-05-16T16:51:50.213Z,20.12
2023-05-16T16:54:17.266Z,20.02
2023-05-16T16:56:48.992Z,19.97
2023-05-16T16:59:16.847Z,19.90
2023-05-16T17:01:44.104Z,19.84
2023-05-16T17:04:12.339Z,19.81
2023-05-16T17:06:39.679Z,19.70
2023-05-16T17:09:14.234Z,19.63
2023-05-16T17:11:42.412Z,19.54
2023-05-16T17:14:11.140Z,19.46
2023-05-16T17:16:41.055Z,19.42
2023-05-16T17:19:08.333Z,19.36
2023-05-16T17:21:37.074Z,19.29
2023-05-16T17:24:04.062Z,19.27
2023-05-16T17:26:31.884Z,19.27
2023-05-16T17:29:00.537Z,18.73
2023-05-16T17:31:27.961Z,18.49
2023-05-16T17:33:56.292Z,18.40
2023-05-16T17:36:24.552Z,18.44
2023-05-16T17:38:51.452Z,18.39
2023-05-16T17:41:18.756Z,18.31
2023-05-16T17:43:45.755Z,18.27
2023-05-16T17:46:12.825Z,18.19
2023-05-16T17:48:39.732Z,18.12
2023-05-16T17:51:06.972Z,18.07
2023-05-16T17:53:33.862Z,18.02
2023-05-16T17:56:00.846Z,17.91
2023-05-16T17:58:28.438Z,17.82
2023-05-16T18:00:55.378Z,17.76
2023-05-16T18:03:22.919Z,17.71
2023-05-16T18:05:50.666Z,17.65
2023-05-16T18:08:17.602Z,17.58
2023-05-16T18:10:52.201Z,17.59
2023-05-16T18:13:20.146Z,17.56
2023-05-16T18:15:47.081Z,17.52
2023-05-16T18:18:13.921Z,17.49
2023-05-16T18:20:41.001Z,17.43
2023-05-16T18:23:08.866Z,17.39
2023-05-16T18:25:35.861Z,17.35
2023-05-16T18:28:02.728Z,17.36
2023-05-16T18:30:29.623Z,17.35
2023-05-16T18:32:56.594Z,17.30
2023-05-16T18:35:23.871Z,17.22
2023-05-16T18:37:50.863Z,17.19
2023-05-16T18:40:18.264Z,17.16
2023-05-16T18:42:45.269Z,17.14
2023-05-16T18:45:12.262Z,17.11
2023-05-16T18:47:39.236Z,17.08
2023-05-16T18:50:06.722Z,17.03
2023-05-16T18:52:35.457Z,17.01
2023-05-16T18:55:02.269Z,16.98
2023-05-16T18:57:29.234Z,16.95
2023-05-16T18:59:57.044Z,16.94
2023-05-16T19:02:34.029Z,16.87
2023-05-16T19:05:08.168Z,16.85
2023-05-16T19:07:35.228Z,16.83
2023-05-16T19:10:03.770Z,16.80
2023-05-16T19:12:31.135Z,16.79
2023-05-16T19:14:58.121Z,16.74
2023-05-16T19:17:25.296Z,16.71
2023-05-16T19:19:52.393Z,16.71
2023-05-16T19:22:19.292Z,16.70
2023-05-16T19:24:46.251Z,16.70
2023-05-16T19:27:13.466Z,16.72
2023-05-16T19:29:40.404Z,16.70
2023-05-16T19:32:07.670Z,16.70
2023-05-16T19:34:34.592Z,16.70
2023-05-16T19:37:03.472Z,16.70
2023-05-16T19:39:32.216Z,16.70
2023-05-16T19:42:07.015Z,16.70
2023-05-16T19:44:35.121Z,16.69
2023-05-16T19:47:02.174Z,16.67
2023-05-16T19:49:30.641Z,16.68
2023-05-16T19:51:57.465Z,16.65
2023-05-16T19:54:24.443Z,16.70
2023-05-16T19:56:51.388Z,16.71
2023-05-16T19:59:18.308Z,16.71
2023-05-16T20:01:46.003Z,16.71
2023-05-16T20:04:13.073Z,16.62
2023-05-16T20:06:40.129Z,16.60
2023-05-16T20:09:07.757Z,16.60
2023-05-16T20:11:34.675Z,16.55
2023-05-16T20:14:01.859Z,16.51
2023-05-16T20:16:28.805Z,16.54
2023-05-16T20:18:55.891Z,16.56
2023-05-16T20:21:22.783Z,16.54
2023-05-16T20:23:49.699Z,16.56
2023-05-16T20:26:16.756Z,16.56
2023-05-16T20:28:43.937Z,16.59
2023-05-16T20:31:10.927Z,16.63
2023-05-16T20:33:38.113Z,16.66
2023-05-16T20:36:05.169Z,16.67
2023-05-16T20:38:32.146Z,16.68
2023-05-16T20:40:59.673Z,16.69
2023-05-16T20:43:26.872Z,16.70
2023-05-16T20:45:54.009Z,16.71
2023-05-16T20:48:21.032Z,16.77
2023-05-16T20:50:48.071Z,16.79
2023-05-16T20:53:15.146Z,16.80
2023-05-16T20:55:41.994Z,16.79
2023-05-16T20:58:09.070Z,16.81
2023-05-16T21:00:35.953Z,16.78
2023-05-16T21:03:02.946Z,16.81
2023-05-16T21:05:30.110Z,16.78
2023-05-16T21:07:57.144Z,16.81
2023-05-16T21:10:24.098Z,16.75
2023-05-16T21:12:51.052Z,16.72
2023-05-16T21:15:18.032Z,16.69
2023-05-16T21:17:45.157Z,16.67
2023-05-16T21:20:12.184Z,16.67
2023-05-16T21:22:39.140Z,16.67
2023-05-16T21:25:06.295Z,16.68
2023-05-16T21:27:33.141Z,16.69
2023-05-16T21:29:59.983Z,16.64
2023-05-16T21:32:32.322Z,16.64
2023-05-16T21:35:01.281Z,16.58
2023-05-16T21:37:28.248Z,16.52
2023-05-16T21:39:55.129Z,16.50
2023-05-16T21:42:22.207Z,16.43
2023-05-16T21:44:49.032Z,16.40
2023-05-16T21:47:16.058Z,16.39
2023-05-16T21:49:43.138Z,16.37
2023-05-16T21:52:09.944Z,16.34
2023-05-16T21:54:36.802Z,16.34
2023-05-16T21:57:03.968Z,16.32
2023-05-16T21:59:30.797Z,16.25
2023-05-16T22:01:57.850Z,16.21
2023-05-16T22:04:24.854Z,16.19
2023-05-16T22:06:51.778Z,16.19
2023-05-16T22:09:18.625Z,16.16
2023-05-16T22:11:45.717Z,16.13
2023-05-16T22:14:12.649Z,16.11
2023-05-16T22:16:39.597Z,16.11
2023-05-16T22:19:06.912Z,16.10
2023-05-16T22:21:33.792Z,16.10
2023-05-16T22:24:00.759Z,16.11
2023-05-16T22:26:27.641Z,16.07
2023-05-16T22:28:54.621Z,16.12
2023-05-16T22:31:21.841Z,16.17
2023-05-16T22:33:48.981Z,16.18
2023-05-16T22:36:15.926Z,16.08
2023-05-16T22:38:42.773Z,16.09
2023-05-16T22:41:09.708Z,16.10
2023-05-16T22:43:36.629Z,16.08
2023-05-16T22:46:03.563Z,16.03
2023-05-16T22:48:30.574Z,15.99
2023-05-16T22:50:57.606Z,16.01
2023-05-16T22:53:24.462Z,16.01
2023-05-16T22:55:51.399Z,16.01
2023-05-16T22:58:18.269Z,15.95
2023-05-16T23:00:45.229Z,15.92
2023-05-16T23:03:12.231Z,15.91
2023-05-16T23:05:39.089Z,15.89
2023-05-16T23:08:05.993Z,15.91
2023-05-16T23:10:32.841Z,15.88
2023-05-16T23:12:59.665Z,15.76
2023-05-16T23:15:26.614Z,15.77
2023-05-16T23:17:53.924Z,15.69
2023-05-16T23:20:20.841Z,15.65
2023-05-16T23:22:47.767Z,15.72
2023-05-16T23:25:14.661Z,15.73
2023-05-16T23:27:41.666Z,15.71
2023-05-16T23:30:09.274Z,15.69
2023-05-16T23:32:36.791Z,15.66
2023-05-16T23:35:03.759Z,15.66
2023-05-16T23:37:31.276Z,15.60
2023-05-16T23:39:58.136Z,15.51
2023-05-16T23:42:25.021Z,15.49
2023-05-16T23:44:51.853Z,15.46
2023-05-16T23:47:18.773Z,15.46
2023-05-16T23:49:45.891Z,15.39
2023-05-16T23:52:13.662Z,15.38
2023-05-16T23:54:40.690Z,15.37
2023-05-16T23:57:07.586Z,15.35
2023-05-16T23:59:34.405Z,15.37
